Time;durP1;ratioP1;P1;durP2;ratioP2;P2;SDS_P1;SDS_P2;PMS_P1;PMS_P2;Temp;Humidity;BMP_temperature;BMP_pressure;BME280_temperature;BME280_humidity;BME280_pressure;Samples;Min_cycle;Max_cycle;Signal;HPM_P1;HPM_P2
2023/12/20 00:01:09;;;;;;;;;5.00;5.00;;;;;9.93;92.07;101970.44;5058286;28;66698;-55
2023/12/20 00:03:35;;;;;;;;;6.00;5.00;;;;;9.91;91.70;101966.94;5059744;28;45515;-56
2023/12/20 00:06:00;;;;;;;;;4.00;4.00;;;;;9.88;91.55;101972.34;5059170;28;45340;-56
2023/12/20 00:08:25;;;;;;;;;5.00;5.00;;;;;9.88;91.63;101979.44;5058483;28;73135;-55
2023/12/20 00:10:51;;;;;;;;;5.00;5.00;;;;;9.88;90.95;101993.63;5059040;28;54264;-56
2023/12/20 00:13:16;;;;;;;;;7.33;6.33;;;;;9.86;90.82;101989.25;5057227;28;70882;-57
2023/12/20 00:15:41;;;;;;;;;5.00;5.00;;;;;9.84;90.77;101993.72;5058588;28;73486;-56
2023/12/20 00:18:07;;;;;;;;;3.00;3.00;;;;;9.80;89.89;101997.38;5057950;28;66199;-56
2023/12/20 00:20:32;;;;;;;;;2.00;2.00;;;;;9.74;89.57;101991.31;5057704;28;46041;-56
2023/12/20 00:22:57;;;;;;;;;1.00;1.00;;;;;9.69;88.79;102006.53;5058106;28;63671;-57
2023/12/20 00:25:26;;;;;;;;;2.67;1.00;;;;;9.62;88.40;102006.72;5060155;28;47835;-55
2023/12/20 00:27:51;;;;;;;;;1.00;1.00;;;;;9.53;87.24;102015.81;5056082;28;45306;-57
2023/12/20 00:30:17;;;;;;;;;1.00;1.00;;;;;9.48;86.11;102017.72;5058402;28;69166;-56
2023/12/20 00:32:48;;;;;;;;;0.33;0.33;;;;;9.42;85.75;102011.63;5058794;28;65114;-56
2023/12/20 00:35:14;;;;;;;;;0.67;0.00;;;;;9.40;85.53;102016.13;5059073;28;45835;-56
2023/12/20 00:37:39;;;;;;;;;0.00;0.00;;;;;9.35;85.96;102007.41;5057977;28;45316;-56
2023/12/20 00:40:05;;;;;;;;;1.00;1.00;;;;;9.27;85.06;102012.06;5059155;28;45353;-56
2023/12/20 00:42:31;;;;;;;;;0.00;0.00;;;;;9.17;84.64;102010.53;5058004;28;45606;-56
2023/12/20 00:44:57;;;;;;;;;0.00;0.00;;;;;9.06;85.02;102006.38;5058645;28;45639;-55
2023/12/20 00:47:22;;;;;;;;;0.67;0.67;;;;;8.99;84.72;102015.38;5056136;28;45461;-56
2023/12/20 00:49:48;;;;;;;;;0.00;0.00;;;;;8.91;84.38;102014.69;5058152;28;68301;-55
2023/12/20 00:52:14;;;;;;;;;0.00;0.00;;;;;8.84;84.24;102015.72;5057530;28;45455;-56
2023/12/20 00:54:39;;;;;;;;;2.33;0.00;;;;;8.77;85.02;102021.22;5058166;28;45297;-57
2023/12/20 00:57:04;;;;;;;;;0.33;0.00;;;;;8.72;84.73;102024.84;5057248;28;72958;-56
2023/12/20 00:59:30;;;;;;;;;2.00;1.00;;;;;8.67;85.22;102029.38;5090576;27;69100;-56
2023/12/20 01:01:55;;;;;;;;;0.00;0.00;;;;;8.60;85.19;102026.00;5058335;28;45232;-55
2023/12/20 01:04:21;;;;;;;;;2.00;0.00;;;;;8.55;85.04;102025.22;5058399;28;64698;-56
2023/12/20 01:06:46;;;;;;;;;1.00;0.00;;;;;8.50;85.11;102020.03;5058526;28;45310;-56
2023/12/20 01:09:11;;;;;;;;;0.00;0.00;;;;;8.45;85.23;102024.53;5055963;28;60333;-56
2023/12/20 01:11:37;;;;;;;;;0.33;0.00;;;;;8.40;85.14;102024.63;5057839;28;68197;-54
2023/12/20 01:14:02;;;;;;;;;0.33;0.33;;;;;8.38;85.15;102034.41;5057126;28;75539;-56
2023/12/20 01:16:27;;;;;;;;;1.33;0.00;;;;;8.34;85.12;102026.53;5057892;28;57668;-55
2023/12/20 01:18:53;;;;;;;;;1.00;1.00;;;;;8.31;85.08;102037.22;5056095;28;66152;-56
2023/12/20 01:21:18;;;;;;;;;0.33;0.33;;;;;8.28;84.99;102059.38;5059653;28;45407;-56
2023/12/20 01:23:43;;;;;;;;;0.67;0.67;;;;;8.23;85.20;102050.63;5058406;28;75702;-56
2023/12/20 01:26:09;;;;;;;;;0.33;0.00;;;;;8.19;84.99;102056.91;5057681;28;69358;-55
2023/12/20 01:28:34;;;;;;;;;0.00;0.00;;;;;8.17;85.45;102042.78;5056702;28;57875;-55
2023/12/20 01:30:59;;;;;;;;;0.00;0.00;;;;;8.15;85.17;102049.88;5055967;28;64998;-54
2023/12/20 01:33:24;;;;;;;;;0.33;0.33;;;;;8.10;85.19;102031.44;5090391;27;66298;-56
2023/12/20 01:35:50;;;;;;;;;0.67;0.67;;;;;8.05;85.26;102036.81;5054395;28;71929;-56
2023/12/20 01:38:18;;;;;;;;;0.00;0.00;;;;;8.05;85.36;102035.97;5057618;28;67757;-56
2023/12/20 01:40:43;;;;;;;;;3.00;0.00;;;;;8.03;85.24;102043.06;5058313;28;45545;-55
2023/12/20 01:43:09;;;;;;;;;0.00;0.00;;;;;8.01;85.75;102045.75;5054996;28;45925;-55
2023/12/20 01:45:35;;;;;;;;;0.00;0.00;;;;;7.99;85.40;102030.78;5058057;28;45394;-62
2023/12/20 01:48:02;;;;;;;;;0.00;0.00;;;;;7.97;85.79;102038.75;5053462;28;45463;-55
2023/12/20 01:50:28;;;;;;;;;0.00;0.00;;;;;7.96;85.84;102037.00;5086669;27;45396;-56
2023/12/20 01:52:57;;;;;;;;;2.00;0.00;;;;;7.95;85.94;102040.56;5057916;28;45815;-56
2023/12/20 01:55:23;;;;;;;;;0.00;0.00;;;;;8.00;85.97;102048.44;5058400;28;45613;-56
2023/12/20 01:57:48;;;;;;;;;2.00;0.00;;;;;8.06;85.99;102038.56;5056681;28;45538;-56
2023/12/20 02:00:14;;;;;;;;;0.00;0.00;;;;;8.16;86.04;102060.50;5073621;28;45729;-55
2023/12/20 02:02:40;;;;;;;;;0.33;0.33;;;;;8.22;85.98;102055.03;5058368;28;45668;-56
2023/12/20 02:05:07;;;;;;;;;0.00;0.00;;;;;8.32;85.83;102063.69;5057811;28;45414;-56
2023/12/20 02:07:33;;;;;;;;;0.00;0.00;;;;;8.39;85.63;102065.28;5057007;28;45459;-56
2023/12/20 02:09:58;;;;;;;;;2.00;1.00;;;;;8.46;85.27;102070.50;5054547;28;45610;-55
2023/12/20 02:12:23;;;;;;;;;0.00;0.00;;;;;8.51;85.11;102068.63;5057672;28;46201;-54
2023/12/20 02:14:49;;;;;;;;;1.00;0.00;;;;;8.54;84.99;102069.47;5057249;28;45415;-55
2023/12/20 02:17:15;;;;;;;;;0.00;0.00;;;;;8.57;84.54;102068.53;5057985;28;45425;-55
2023/12/20 02:19:40;;;;;;;;;1.67;0.00;;;;;8.55;84.22;102071.22;5060644;28;45362;-55
2023/12/20 02:22:12;;;;;;;;;1.00;1.00;;;;;8.53;84.49;102080.97;5060250;28;72190;-55
2023/12/20 02:24:38;;;;;;;;;0.00;0.00;;;;;8.50;84.22;102082.81;5061329;28;45333;-56
2023/12/20 02:27:05;;;;;;;;;0.00;0.00;;;;;8.47;84.18;102075.78;5061119;28;49766;-57
2023/12/20 02:29:32;;;;;;;;;0.00;0.00;;;;;8.49;84.08;102078.44;5056411;28;45456;-55
2023/12/20 02:31:57;;;;;;;;;0.00;0.00;;;;;8.50;84.22;102072.19;5059256;28;46446;-55
2023/12/20 02:34:23;;;;;;;;;0.00;0.00;;;;;8.48;84.15;102074.88;5060203;28;70110;-55
2023/12/20 02:36:48;;;;;;;;;0.00;0.00;;;;;8.45;83.64;102072.28;5057935;28;45606;-56
2023/12/20 02:39:14;;;;;;;;;0.33;0.33;;;;;8.39;83.52;102083.00;5061023;28;45433;-54
2023/12/20 02:41:39;;;;;;;;;2.00;0.00;;;;;8.33;83.79;102086.66;5060059;28;75373;-54
2023/12/20 02:44:04;;;;;;;;;1.00;1.00;;;;;8.27;84.17;102086.78;5055769;28;73411;-54
2023/12/20 02:46:30;;;;;;;;;0.33;0.00;;;;;8.20;83.80;102085.13;5059920;28;64207;-55
2023/12/20 02:48:55;;;;;;;;;1.00;1.00;;;;;8.13;83.91;102094.97;5059007;28;50875;-54
2023/12/20 02:51:20;;;;;;;;;0.00;0.00;;;;;8.08;83.81;102087.13;5061119;28;62072;-54
2023/12/20 02:53:46;;;;;;;;;0.00;0.00;;;;;8.04;83.76;102087.22;5058618;28;73234;-55
2023/12/20 02:56:11;;;;;;;;;0.00;0.00;;;;;8.01;83.98;102087.28;5060742;28;45279;-55
2023/12/20 02:58:36;;;;;;;;;1.67;1.33;;;;;7.97;84.17;102091.75;5060770;28;45548;-54
2023/12/20 03:01:02;;;;;;;;;0.00;0.00;;;;;7.91;84.04;102082.16;5058727;28;47171;-55
2023/12/20 03:03:27;;;;;;;;;0.00;0.00;;;;;7.88;83.99;102091.94;5060051;28;45464;-56
2023/12/20 03:05:52;;;;;;;;;0.00;0.00;;;;;7.85;84.24;102097.25;5054900;28;45285;-56
2023/12/20 03:08:18;;;;;;;;;1.00;1.00;;;;;7.82;84.26;102099.97;5059938;28;70447;-56
2023/12/20 03:10:43;;;;;;;;;2.00;1.00;;;;;7.79;84.51;102108.84;5059928;28;73349;-56
2023/12/20 03:13:09;;;;;;;;;2.00;2.00;;;;;7.77;84.60;102087.69;5060215;28;45315;-58
2023/12/20 03:15:34;;;;;;;;;3.00;1.67;;;;;7.75;84.51;102083.31;5060210;28;54917;-55
2023/12/20 03:17:59;;;;;;;;;1.33;1.00;;;;;7.73;84.54;102077.16;5058187;28;45545;-56
2023/12/20 03:20:26;;;;;;;;;3.33;1.67;;;;;7.70;84.54;102086.03;5060161;28;45470;-55
2023/12/20 03:22:51;;;;;;;;;1.00;1.00;;;;;7.69;84.82;102086.06;5058644;28;45352;-56
2023/12/20 03:25:17;;;;;;;;;1.00;1.00;;;;;7.67;84.89;102096.69;5060441;28;45373;-56
2023/12/20 03:27:42;;;;;;;;;1.00;1.00;;;;;7.66;84.68;102086.13;5059748;28;68703;-55
2023/12/20 03:30:08;;;;;;;;;1.00;1.00;;;;;7.65;84.93;102085.25;5059128;28;62709;-56
2023/12/20 03:32:33;;;;;;;;;0.00;0.00;;;;;7.64;85.04;102086.16;5057785;28;45336;-55
2023/12/20 03:34:58;;;;;;;;;1.00;0.00;;;;;7.63;85.01;102100.31;5058215;28;67842;-55
2023/12/20 03:37:24;;;;;;;;;0.67;0.00;;;;;7.60;85.07;102082.69;5059158;28;67540;-55
2023/12/20 03:39:49;;;;;;;;;0.00;0.00;;;;;7.58;85.25;102099.50;5059469;28;51222;-56
2023/12/20 03:42:14;;;;;;;;;0.00;0.00;;;;;7.57;85.10;102101.28;5058518;28;61708;-55
2023/12/20 03:44:40;;;;;;;;;0.00;0.00;;;;;7.57;85.18;102103.94;5059479;28;68483;-56
2023/12/20 03:47:06;;;;;;;;;0.00;0.00;;;;;7.55;85.11;102105.72;5060337;28;45492;-54
2023/12/20 03:49:31;;;;;;;;;0.00;0.00;;;;;7.55;85.25;102102.22;5051880;28;46474;-55
2023/12/20 03:51:56;;;;;;;;;1.00;1.00;;;;;7.54;85.33;102098.69;5059727;28;45339;-55
2023/12/20 03:54:22;;;;;;;;;0.00;0.00;;;;;7.54;85.50;102109.28;5060399;28;45494;-55
2023/12/20 03:56:47;;;;;;;;;0.67;0.67;;;;;7.53;85.46;102109.31;5059485;28;52151;-55
2023/12/20 03:59:12;;;;;;;;;0.33;0.00;;;;;7.54;85.54;102114.56;5058278;28;76364;-55
2023/12/20 04:01:37;;;;;;;;;1.00;1.00;;;;;7.53;85.59;102107.50;5059402;28;51238;-55
2023/12/20 04:04:03;;;;;;;;;0.00;0.00;;;;;7.52;85.42;102108.44;5058969;28;60540;-55
2023/12/20 04:06:29;;;;;;;;;0.00;0.00;;;;;7.51;85.42;102105.78;5059969;28;45671;-55
2023/12/20 04:08:54;;;;;;;;;2.00;0.00;;;;;7.49;85.59;102100.53;5059433;28;45390;-56
2023/12/20 04:11:19;;;;;;;;;2.00;0.00;;;;;7.47;85.38;102096.16;5058825;28;73119;-55
2023/12/20 04:13:44;;;;;;;;;1.00;0.00;;;;;7.47;85.33;102104.09;5056076;28;66710;-54
2023/12/20 04:16:10;;;;;;;;;0.00;0.00;;;;;7.44;85.54;102108.56;5058156;28;69386;-55
2023/12/20 04:18:36;;;;;;;;;0.00;0.00;;;;;7.42;85.45;102102.41;5058204;28;45419;-55
2023/12/20 04:21:01;;;;;;;;;0.00;0.00;;;;;7.40;85.54;102109.47;5059149;28;45361;-54
2023/12/20 04:23:26;;;;;;;;;3.00;0.00;;;;;7.39;85.75;102104.22;5059162;28;50909;-54
2023/12/20 04:25:52;;;;;;;;;0.00;0.00;;;;;7.39;85.33;102099.81;5059248;28;45334;-55
2023/12/20 04:28:17;;;;;;;;;2.00;0.00;;;;;7.38;85.50;102105.09;5056124;28;70171;-55
2023/12/20 04:30:42;;;;;;;;;0.00;0.00;;;;;7.36;85.41;102115.72;5058403;28;69101;-55
2023/12/20 04:33:08;;;;;;;;;3.00;0.00;;;;;7.34;85.34;102112.25;5058900;28;45325;-55
2023/12/20 04:35:33;;;;;;;;;0.00;0.00;;;;;7.33;85.71;102121.09;5059426;28;53316;-55
2023/12/20 04:37:58;;;;;;;;;0.00;0.00;;;;;7.32;85.46;102121.09;5057771;28;75628;-55
2023/12/20 04:40:24;;;;;;;;;0.00;0.00;;;;;7.31;85.71;102116.72;5059474;28;45283;-55
2023/12/20 04:42:49;;;;;;;;;0.33;0.33;;;;;7.29;85.54;102107.00;5055180;28;65829;-59
2023/12/20 04:45:15;;;;;;;;;0.00;0.00;;;;;7.29;85.54;102103.50;5058141;28;69687;-55
2023/12/20 04:47:42;;;;;;;;;2.67;0.00;;;;;7.28;85.68;102107.91;5058912;28;45375;-55
2023/12/20 04:50:08;;;;;;;;;3.67;0.00;;;;;7.27;85.79;102116.78;5064389;28;45346;-54
2023/12/20 04:52:33;;;;;;;;;0.67;0.67;;;;;7.28;85.49;102107.03;5041469;28;45461;-54
2023/12/20 04:54:59;;;;;;;;;0.00;0.00;;;;;7.27;85.72;102107.94;5040111;28;51920;-56
2023/12/20 04:57:24;;;;;;;;;3.33;0.67;;;;;7.27;85.50;102107.94;5055865;28;46233;-56
2023/12/20 04:59:50;;;;;;;;;0.00;0.00;;;;;7.25;85.61;102110.59;5056838;28;71748;-56
2023/12/20 05:02:15;;;;;;;;;0.00;0.00;;;;;7.24;85.12;102108.00;5053441;28;69008;-56
2023/12/20 05:04:41;;;;;;;;;2.67;0.00;;;;;7.21;85.51;102111.56;5036298;28;45486;-56
2023/12/20 05:07:06;;;;;;;;;0.00;0.00;;;;;7.20;85.46;102111.59;5042260;28;45539;-56
2023/12/20 05:09:32;;;;;;;;;0.00;0.00;;;;;7.19;85.45;102110.69;5041562;28;48727;-55
2023/12/20 05:11:57;;;;;;;;;0.00;0.00;;;;;7.23;85.82;102111.53;5025513;28;67657;-55
2023/12/20 05:14:22;;;;;;;;;0.00;0.00;;;;;7.28;85.66;102117.63;5054136;28;69257;-54
2023/12/20 05:16:47;;;;;;;;;2.00;0.00;;;;;7.32;85.56;102118.47;5056352;28;65440;-56
2023/12/20 05:19:14;;;;;;;;;2.00;1.00;;;;;7.32;85.32;102119.31;5036931;28;45537;-56
2023/12/20 05:21:39;;;;;;;;;2.00;0.00;;;;;7.28;85.08;102113.19;5058626;28;45321;-54
2023/12/20 05:24:05;;;;;;;;;0.00;0.00;;;;;7.26;85.44;102114.13;5058344;28;45387;-55
2023/12/20 05:26:30;;;;;;;;;0.00;0.00;;;;;7.24;85.32;102111.50;5058457;28;45422;-56
2023/12/20 05:28:55;;;;;;;;;0.33;0.33;;;;;7.22;85.40;102113.31;5058211;28;45241;-55
2023/12/20 05:31:21;;;;;;;;;0.00;0.00;;;;;7.21;85.55;102121.25;5055671;28;59851;-55
2023/12/20 05:33:46;;;;;;;;;0.00;0.00;;;;;7.18;85.19;102116.88;5056574;28;45415;-56
2023/12/20 05:36:13;;;;;;;;;0.00;0.00;;;;;7.17;85.30;102119.56;5057511;28;46260;-55
2023/12/20 05:38:39;;;;;;;;;1.00;0.33;;;;;7.15;85.53;102129.31;5056028;28;45551;-56
2023/12/20 05:41:04;;;;;;;;;0.00;0.00;;;;;7.13;85.51;102129.28;5057466;28;61835;-55
2023/12/20 05:43:29;;;;;;;;;0.00;0.00;;;;;7.11;85.59;102133.75;5057996;28;57474;-56
2023/12/20 05:45:55;;;;;;;;;0.00;0.00;;;;;7.09;85.42;102133.78;5054367;28;74565;-56
2023/12/20 05:48:20;;;;;;;;;1.00;0.00;;;;;7.07;85.54;102124.97;5057029;28;73594;-56
2023/12/20 05:50:45;;;;;;;;;0.00;0.00;;;;;7.08;85.73;102141.75;5057342;28;66303;-56
2023/12/20 05:53:11;;;;;;;;;0.00;0.00;;;;;7.05;85.79;102137.38;5055285;28;49049;-57
2023/12/20 05:55:36;;;;;;;;;1.00;1.00;;;;;7.04;85.58;102143.56;5060383;28;73499;-56
2023/12/20 05:58:01;;;;;;;;;1.67;1.00;;;;;7.04;85.69;102145.31;5059922;28;69303;-57
2023/12/20 06:00:27;;;;;;;;;0.67;0.67;;;;;7.02;85.59;102137.41;5061830;28;45502;-55
2023/12/20 06:02:52;;;;;;;;;0.00;0.00;;;;;6.99;85.49;102145.38;5061703;27;45415;-56
2023/12/20 06:05:18;;;;;;;;;2.00;0.33;;;;;6.98;85.49;102148.94;5061225;28;69084;-56
2023/12/20 06:07:44;;;;;;;;;0.00;0.00;;;;;6.98;85.89;102156.88;5061962;28;62337;-56
2023/12/20 06:10:10;;;;;;;;;1.00;1.00;;;;;6.98;85.94;102154.22;5060987;28;45328;-56
2023/12/20 06:12:36;;;;;;;;;0.00;0.00;;;;;6.97;85.89;102156.88;5058813;28;64127;-55
2023/12/20 06:15:01;;;;;;;;;1.00;1.00;;;;;6.96;85.95;102153.34;5060339;28;46952;-56
2023/12/20 06:17:30;;;;;;;;;1.00;1.00;;;;;6.95;86.01;102152.50;5061273;28;45239;-56
2023/12/20 06:19:55;;;;;;;;;2.33;1.00;;;;;6.94;85.89;102142.78;5060124;28;45509;-56
2023/12/20 06:22:20;;;;;;;;;0.33;0.33;;;;;6.93;85.98;102148.09;5061088;28;70282;-55
2023/12/20 06:24:46;;;;;;;;;0.00;0.00;;;;;6.90;85.95;102154.31;5060075;28;64457;-56
2023/12/20 06:27:11;;;;;;;;;1.00;1.00;;;;;6.89;86.15;102152.56;5066038;28;45406;-56
2023/12/20 06:29:36;;;;;;;;;1.33;1.33;;;;;6.89;86.04;102149.91;5060681;28;45350;-56
2023/12/20 06:32:02;;;;;;;;;2.00;0.00;;;;;6.87;86.15;102146.44;5059819;28;70501;-55
2023/12/20 06:34:27;;;;;;;;;0.00;0.00;;;;;6.85;86.47;102145.56;5056144;28;46956;-56
2023/12/20 06:36:52;;;;;;;;;1.67;1.00;;;;;6.85;86.08;102147.34;5052961;28;61335;-56
2023/12/20 06:39:18;;;;;;;;;1.00;0.67;;;;;6.84;86.11;102142.94;5060984;28;68309;-57
2023/12/20 06:41:43;;;;;;;;;2.00;1.00;;;;;6.83;86.23;102146.47;5060180;28;70825;-56
2023/12/20 06:44:09;;;;;;;;;1.00;0.00;;;;;6.81;86.43;102143.84;5059281;28;45430;-57
2023/12/20 06:46:35;;;;;;;;;1.00;1.00;;;;;6.78;86.26;102144.78;5093775;27;45552;-57
2023/12/20 06:49:00;;;;;;;;;3.00;1.67;;;;;6.77;86.46;102156.25;5064034;28;45346;-57
2023/12/20 06:51:25;;;;;;;;;2.00;0.00;;;;;6.76;86.53;102161.56;5059301;28;68294;-56
2023/12/20 06:53:54;;;;;;;;;1.00;1.00;;;;;6.75;86.62;102165.09;5074107;28;46916;-57
2023/12/20 06:56:19;;;;;;;;;0.00;0.00;;;;;6.74;86.70;102161.56;5056407;28;45470;-57
2023/12/20 06:58:45;;;;;;;;;0.00;0.00;;;;;6.73;86.40;102151.88;5056651;28;45341;-56
2023/12/20 07:01:13;;;;;;;;;2.00;1.00;;;;;6.72;86.48;102160.72;5056965;28;45517;-56
2023/12/20 07:03:39;;;;;;;;;1.00;1.00;;;;;6.71;86.76;102164.25;5060339;28;45480;-56
2023/12/20 07:06:05;;;;;;;;;2.00;2.00;;;;;6.71;86.67;102158.94;5056440;28;45389;-57
2023/12/20 07:08:30;;;;;;;;;1.00;1.00;;;;;6.72;86.74;102159.84;5061251;28;68150;-57
2023/12/20 07:10:55;;;;;;;;;1.67;1.67;;;;;6.69;86.87;102160.75;5062596;28;47128;-57
2023/12/20 07:13:22;;;;;;;;;3.00;2.00;;;;;6.70;86.96;102164.25;5058853;28;57047;-58
2023/12/20 07:15:47;;;;;;;;;1.67;1.67;;;;;6.68;87.20;102166.94;5059752;28;45303;-57
2023/12/20 07:18:12;;;;;;;;;2.00;2.00;;;;;6.68;86.90;102166.94;5057994;28;51485;-55
2023/12/20 07:20:38;;;;;;;;;1.33;1.33;;;;;6.67;87.07;102170.47;5059220;28;49074;-52
2023/12/20 07:23:03;;;;;;;;;2.33;1.33;;;;;6.67;87.13;102173.09;5058823;28;74397;-51
2023/12/20 07:25:30;;;;;;;;;1.33;0.67;;;;;6.66;86.92;102167.84;5058768;28;47354;-52
2023/12/20 07:27:55;;;;;;;;;2.33;1.00;;;;;6.65;87.18;102181.94;5057088;28;45902;-51
2023/12/20 07:30:20;;;;;;;;;3.00;2.00;;;;;6.65;87.06;102181.94;5058724;28;69256;-51
2023/12/20 07:32:47;;;;;;;;;4.67;1.67;;;;;6.65;87.35;102196.06;5056297;28;64590;-53
2023/12/20 07:35:12;;;;;;;;;2.00;2.00;;;;;6.65;87.28;102185.50;5060302;28;45497;-53
2023/12/20 07:37:37;;;;;;;;;1.00;1.00;;;;;6.67;87.30;102177.53;5058935;28;45477;-54
2023/12/20 07:40:03;;;;;;;;;1.00;1.00;;;;;6.66;87.30;102179.28;5060411;28;65519;-54
2023/12/20 07:42:28;;;;;;;;;1.67;1.00;;;;;6.67;87.63;102182.81;5059951;28;45383;-52
2023/12/20 07:44:55;;;;;;;;;2.00;2.00;;;;;6.68;87.66;102181.94;5058215;28;65040;-51
2023/12/20 07:47:21;;;;;;;;;1.33;1.33;;;;;6.69;87.35;102184.56;5059730;28;46251;-54
2023/12/20 07:49:48;;;;;;;;;2.00;1.00;;;;;6.69;87.41;102188.94;5058965;28;45248;-51
2023/12/20 07:52:13;;;;;;;;;5.00;2.00;;;;;6.70;87.46;102194.25;5059354;28;46235;-52
2023/12/20 07:54:39;;;;;;;;;5.00;3.33;;;;;6.72;87.54;102200.38;5058887;28;71849;-52
2023/12/20 07:57:05;;;;;;;;;2.33;2.33;;;;;6.73;87.61;102198.63;5059418;28;45343;-52
2023/12/20 07:59:30;;;;;;;;;1.33;1.33;;;;;6.75;87.67;102203.00;5058761;28;56164;-53
2023/12/20 08:01:55;;;;;;;;;1.67;1.67;;;;;6.76;87.73;102188.00;5057988;28;74502;-53
2023/12/20 08:04:21;;;;;;;;;3.67;2.67;;;;;6.78;87.67;102191.50;5060069;28;45307;-53
2023/12/20 08:06:46;;;;;;;;;3.00;3.00;;;;;6.80;87.70;102195.00;5057906;28;64884;-53
2023/12/20 08:09:11;;;;;;;;;1.67;1.67;;;;;6.81;87.67;102170.31;5059341;28;45474;-53
2023/12/20 08:11:37;;;;;;;;;3.00;1.00;;;;;6.85;87.69;102181.72;5058703;28;71282;-53
2023/12/20 08:14:02;;;;;;;;;3.67;1.67;;;;;6.88;87.51;102186.97;5059130;28;45540;-52
2023/12/20 08:16:27;;;;;;;;;2.00;0.67;;;;;6.89;87.62;102191.38;5057819;28;60693;-53
2023/12/20 08:18:53;;;;;;;;;2.00;1.00;;;;;6.92;87.76;102204.56;5059050;28;45305;-53
2023/12/20 08:21:20;;;;;;;;;2.00;2.00;;;;;6.95;87.75;102188.66;5091472;27;46066;-53
2023/12/20 08:23:46;;;;;;;;;3.00;3.00;;;;;7.00;87.47;102188.59;5058908;28;45339;-54
2023/12/20 08:26:11;;;;;;;;;2.67;2.67;;;;;7.04;87.24;102187.63;5058942;28;45410;-53
2023/12/20 08:28:36;;;;;;;;;2.00;1.33;;;;;7.05;87.37;102177.06;5058650;28;60646;-54
2023/12/20 08:31:02;;;;;;;;;3.00;3.00;;;;;7.08;87.40;102168.22;5058417;28;69932;-54
2023/12/20 08:33:27;;;;;;;;;5.00;3.33;;;;;7.11;87.36;102178.75;5060883;28;45397;-54
2023/12/20 08:35:52;;;;;;;;;2.67;2.67;;;;;7.14;87.24;102183.97;5058634;28;64971;-54
2023/12/20 08:38:18;;;;;;;;;5.67;4.00;;;;;7.15;87.05;102174.28;5058260;28;69863;-53
2023/12/20 08:40:44;;;;;;;;;3.67;2.33;;;;;7.18;86.96;102176.88;5057677;28;73982;-54
2023/12/20 08:43:09;;;;;;;;;3.00;3.00;;;;;7.22;86.99;102183.88;5049045;28;45260;-54
2023/12/20 08:45:34;;;;;;;;;3.67;3.67;;;;;7.26;87.07;102188.22;5070963;28;45412;-54
2023/12/20 08:48:00;;;;;;;;;5.00;3.00;;;;;7.30;87.04;102187.31;5058222;28;45517;-53
2023/12/20 08:50:25;;;;;;;;;2.00;2.00;;;;;7.35;86.96;102196.03;5058929;28;45361;-51
2023/12/20 08:52:51;;;;;;;;;3.33;2.00;;;;;7.39;86.69;102194.22;5057507;28;69943;-54
2023/12/20 08:55:18;;;;;;;;;5.00;3.67;;;;;7.43;86.73;102190.63;5059225;28;45350;-53
2023/12/20 08:57:43;;;;;;;;;5.00;3.00;;;;;7.47;86.57;102197.66;5059088;28;45335;-53
2023/12/20 09:00:09;;;;;;;;;2.00;2.00;;;;;7.50;86.43;102204.69;5058195;28;45383;-54
2023/12/20 09:02:36;;;;;;;;;5.67;1.67;;;;;7.54;86.25;102204.59;5059848;28;45320;-51
2023/12/20 09:05:02;;;;;;;;;5.00;3.33;;;;;7.58;86.38;102208.94;5059041;28;45248;-54
2023/12/20 09:07:30;;;;;;;;;4.33;4.33;;;;;7.64;86.33;102205.34;5059260;28;45320;-59
2023/12/20 09:09:55;;;;;;;;;5.00;3.00;;;;;7.74;86.37;102206.97;5057984;28;46462;-53
2023/12/20 09:12:20;;;;;;;;;5.00;4.00;;;;;7.97;86.32;102213.66;5059166;28;45441;-54
2023/12/20 09:14:47;;;;;;;;;2.67;2.67;;;;;8.18;85.92;102208.88;5058013;28;53268;-54
2023/12/20 09:17:12;;;;;;;;;3.67;2.00;;;;;8.34;85.49;102202.38;5067934;28;45366;-53
2023/12/20 09:19:38;;;;;;;;;4.00;2.00;;;;;8.50;85.25;102194.19;5056979;28;45580;-54
2023/12/20 09:22:04;;;;;;;;;0.33;0.33;;;;;8.61;84.39;102186.91;5058276;28;45394;-54
2023/12/20 09:24:30;;;;;;;;;3.00;2.00;;;;;8.68;84.06;102175.28;5058574;28;45425;-55
2023/12/20 09:26:55;;;;;;;;;6.67;2.00;;;;;8.76;83.79;102180.41;5058280;28;45339;-53
2023/12/20 09:29:21;;;;;;;;;2.00;2.00;;;;;8.87;83.59;102178.41;5058336;28;46131;-54
2023/12/20 09:31:46;;;;;;;;;2.00;2.00;;;;;9.00;83.36;102176.38;5057653;28;69341;-52
2023/12/20 09:34:14;;;;;;;;;1.00;1.00;;;;;9.11;82.54;102173.47;5058762;28;45442;-51
2023/12/20 09:36:46;;;;;;;;;1.67;0.00;;;;;9.24;82.55;102182.94;5057910;28;45485;-53
2023/12/20 09:39:11;;;;;;;;;2.33;2.00;;;;;9.36;82.81;102189.75;5057727;28;45486;-53
2023/12/20 09:41:42;;;;;;;;;1.67;1.67;;;;;9.46;82.01;102200.16;5058409;28;45212;-54
2023/12/20 09:44:08;;;;;;;;;3.33;1.67;;;;;9.53;81.29;102204.41;5057788;28;45320;-54
2023/12/20 09:46:35;;;;;;;;;4.67;2.67;;;;;9.58;81.22;102206.06;5072718;28;69391;-54
2023/12/20 09:49:00;;;;;;;;;2.00;2.00;;;;;9.62;80.88;102198.91;5056124;28;53219;-51
2023/12/20 09:51:28;;;;;;;;;4.00;4.00;;;;;9.67;80.32;102204.09;5056944;28;73409;-53
2023/12/20 09:53:54;;;;;;;;;2.00;2.00;;;;;10.03;81.14;102209.41;5058064;28;45296;-54
2023/12/20 09:56:21;;;;;;;;;3.67;2.00;;;;;10.53;80.89;102196.59;5090914;27;45406;-53
2023/12/20 09:58:46;;;;;;;;;2.00;2.00;;;;;10.85;78.77;102192.13;5055767;28;73442;-52
2023/12/20 10:01:12;;;;;;;;;3.00;3.00;;;;;11.02;78.00;102190.78;5057071;28;45401;-51
2023/12/20 10:03:40;;;;;;;;;1.33;1.33;;;;;11.12;77.69;102194.91;5058339;28;45272;-52
2023/12/20 10:06:06;;;;;;;;;1.00;1.00;;;;;11.22;76.58;102196.38;5090471;27;45490;-52
2023/12/20 10:08:32;;;;;;;;;2.33;1.33;;;;;11.41;76.64;102201.13;5057159;28;46333;-53
2023/12/20 10:11:02;;;;;;;;;2.00;2.00;;;;;11.99;76.64;102202.84;5057623;28;45248;-53
2023/12/20 10:13:27;;;;;;;;;3.67;3.00;;;;;12.53;75.06;102193.84;5057648;28;45450;-54
2023/12/20 10:15:55;;;;;;;;;1.00;1.00;;;;;12.77;72.12;102193.00;5057355;28;45488;-54
2023/12/20 10:18:21;;;;;;;;;2.00;2.00;;;;;12.87;72.69;102186.41;5057776;28;45491;-56
2023/12/20 10:20:46;;;;;;;;;1.33;0.33;;;;;12.78;71.41;102184.94;5057769;28;45520;-56
2023/12/20 10:23:13;;;;;;;;;5.00;2.67;;;;;12.67;70.82;102181.78;5058862;28;45780;-57
2023/12/20 10:25:39;;;;;;;;;2.33;1.33;;;;;12.88;70.97;102173.00;5056856;28;45492;-54
2023/12/20 10:28:18;;;;;;;;;3.00;2.00;;;;;13.37;70.00;102169.38;5055378;28;46279;-54
2023/12/20 10:30:44;;;;;;;;;2.00;2.00;;;;;13.67;69.57;102161.88;5066753;28;45519;-55
2023/12/20 10:33:09;;;;;;;;;3.00;1.67;;;;;14.12;67.92;102167.16;5064754;28;45307;-56
2023/12/20 10:35:36;;;;;;;;;3.00;3.00;;;;;14.60;69.22;102165.94;5052441;28;45498;-57
2023/12/20 10:38:05;;;;;;;;;5.67;4.00;;;;;15.03;66.08;102161.28;5057760;28;46139;-57
2023/12/20 10:40:30;;;;;;;;;3.00;3.00;;;;;15.25;66.29;102165.59;5055003;28;45510;-58
2023/12/20 10:42:56;;;;;;;;;3.00;2.33;;;;;15.33;62.91;102167.91;5066334;28;45427;-57
2023/12/20 10:45:22;;;;;;;;;2.67;2.00;;;;;15.17;64.52;102167.81;5042044;28;70574;-57
2023/12/20 10:47:49;;;;;;;;;2.00;2.00;;;;;14.78;65.07;102161.56;5059436;28;45450;-56
2023/12/20 10:50:15;;;;;;;;;3.33;2.00;;;;;14.68;65.82;102155.78;5048897;28;45531;-57
2023/12/20 10:52:41;;;;;;;;;1.33;1.33;;;;;14.91;65.46;102151.13;5062449;28;45461;-57
2023/12/20 10:55:07;;;;;;;;;2.33;1.00;;;;;15.13;64.30;102152.81;5042226;28;45388;-57
2023/12/20 10:57:32;;;;;;;;;3.00;1.67;;;;;15.18;61.14;102143.59;5040184;28;45421;-56
2023/12/20 11:00:04;;;;;;;;;4.00;3.00;;;;;15.27;62.50;102144.97;5058881;28;73249;-57
2023/12/20 11:02:32;;;;;;;;;4.67;2.00;;;;;15.43;63.23;102138.88;5042939;28;45509;-57
2023/12/20 11:05:33;;;;;;;;;3.33;3.33;;;;;15.52;62.64;102122.31;5060535;28;45364;-57
2023/12/20 11:08:03;;;;;;;;;3.33;3.00;;;;;15.53;61.52;102122.22;5042207;28;45497;-57
2023/12/20 11:10:51;;;;;;;;;4.33;2.67;;;;;15.65;62.08;102128.78;5041646;28;45419;-57
2023/12/20 11:13:21;;;;;;;;;4.67;3.33;;;;;15.78;60.54;102121.00;5052918;28;45684;-57
2023/12/20 11:15:46;;;;;;;;;4.00;2.67;;;;;15.87;61.88;102115.19;5047178;28;45425;-57
2023/12/20 11:18:12;;;;;;;;;5.00;5.00;;;;;15.95;59.55;102117.47;5040931;28;74469;-57
2023/12/20 11:20:41;;;;;;;;;5.00;3.67;;;;;16.07;60.04;102118.66;5058432;28;45535;-58
2023/12/20 11:23:08;;;;;;;;;6.33;4.33;;;;;16.19;59.27;102103.72;5058852;28;45755;-57
2023/12/20 11:25:54;;;;;;;;;3.00;3.00;;;;;16.36;60.37;102113.53;5042063;28;45502;-57